Airfield :
LOGIN :

Register | Disclaimer

   EN    FR    IT 

 










Legend :    VFR   Marginal VFR   IFR   Intensive IFR   Very Intensive IFR
Visi :
Ceiling :
>= 8 km
>= 3000ft
5 to 8 km
1000 to 3000 ft
1500m to 5 km
500 to 1000 ft
800 to 1500m
200 to 500 ft
< 800m
< 200 ft
Symbols :   Thunderstorms  Fog  Heavy snow  Heavy precipitations  Wind > 20 kt
SIGMETs :     Misc.  Thunderstorms  Icing  Turbulence  Mountain Waves  Volcanic Ashes






- Airport Elevation : 115 ft
- IATA code : HER


LGIR - Nikos Kazantzakis

CURRENT METAR :
  • 191120Z 04005KT 9999 FEW025 BKN090 24/18 Q1017 NOSIG

EXPIRED METARs :
  • 191050Z 03004KT 9999 FEW014 FEW025TCU BKN090 24/18 Q1017 NOSIG
  • 191020Z 04003KT 9999 FEW014 FEW025TCU BKN090 23/19 Q1018 NOSIG
  • 190950Z 08003KT 9999 FEW014 FEW025TCU BKN090 23/19 Q1018 NOSIG
  • 190920Z 15003KT 9999 FEW014 FEW025TCU BKN090 22/18 Q1018 NOSIG
  • 190850Z 09006KT 9999 FEW025TCU BKN090 22/19 Q1018 NOSIG

TAF TAF LGIR
Valid from the 19 at 12:00 until the 20 at 12:00 UTC


191100Z 1912/2012 04006KT 9999 FEW025 SCT080
PROB30
TEMPO 1912/1916 6000 SHRA FEW016CB SCT020 BKN080
BECMG 1918/1920 18010KT
BECMG 2004/2006 30010KT



MET'MAP, your aeronautical weather chart ! - Copyright ORBIFLY December 2007 - Disclaimer

ORBIFLY MET'MAP TEAM :

Programming & Development : Alexandra Zaïnal
Concept & Development : Baudouin d'Aumeries
Co-Development & Prog : Marc-Olivier Méhu
Technical & hardware support : Manuel Goepfert

Contact : metmap@orbifly.com




SOURCES & CREDITS :

   NOAA